Beetown, Wisconsin
Current Conditions -  °F | °C
As of 10:15 PM on Tuesday 21 Oct 2014 (Local Time) from KPDC Reporting Station
Clear Clear  
Wind Chill: 40°   Ceiling: Unl
Heat Index: 43°   Visibility: 10mi
Dew Point: 35°   Wind: 5mph
Humidity: 74%   Direction: 100°E
Pressure: 30.26"   Gusts: NA
Location:  42.8°N, 90.89°W
Report Text: KPDC 220315Z AUTO 10004KT 10SM CLR 06/02 A3026 RMK AO2 T00610018
Loading
Personal Weather Stations






























Interactive Weather Map
Tropical Storm Tracking
New forecast layout! Learn more

10-Day Weather Forecast

Advertisements
Track Severe Weather on mobile